Time;durP1;ratioP1;P1;durP2;ratioP2;P2;SDS_P1;SDS_P2;PMS_P1;PMS_P2;Temp;Humidity;BMP_temperature;BMP_pressure;BME280_temperature;BME280_humidity;BME280_pressure;Samples;Min_cycle;Max_cycle;Signal;HPM_P1;HPM_P2
2022/09/28 00:01:04;;;;;;;11.53;5.77;;;7.70;99.90;;;;;;4870093;29;20105;-76
2022/09/28 00:03:30;;;;;;;11.43;6.85;;;7.70;99.90;;;;;;4882847;29;20063;-76
2022/09/28 00:06:04;;;;;;;12.82;6.63;;;7.70;99.90;;;;;;4865556;29;20041;-77
2022/09/28 00:08:30;;;;;;;13.50;7.38;;;7.70;99.90;;;;;;4869644;29;20092;-77
2022/09/28 00:10:56;;;;;;;13.13;7.57;;;7.70;99.90;;;;;;4876616;29;20480;-77
2022/09/28 00:13:23;;;;;;;15.70;8.27;;;7.70;99.90;;;;;;4875947;29;20044;-77
2022/09/28 00:16:10;;;;;;;15.63;8.50;;;7.30;99.90;;;;;;4844519;29;20523;-77
2022/09/28 00:18:36;;;;;;;13.45;8.60;;;7.80;99.90;;;;;;4873717;29;20045;-76
2022/09/28 00:21:17;;;;;;;14.55;9.07;;;7.80;99.90;;;;;;4880024;29;20056;-76
2022/09/28 00:26:29;;;;;;;14.98;9.82;;;7.80;99.90;;;;;;4859902;29;20057;-77
2022/09/28 00:28:58;;;;;;;20.58;10.75;;;7.90;99.90;;;;;;4860756;29;20049;-76
2022/09/28 00:31:25;;;;;;;18.92;10.65;;;7.80;99.90;;;;;;4862921;29;20427;-77
2022/09/28 00:33:51;;;;;;;16.45;10.55;;;8.10;99.90;;;;;;4879558;29;20056;-75
2022/09/28 00:36:17;;;;;;;20.80;10.95;;;7.90;99.90;;;;;;4862873;29;20407;-75
2022/09/28 00:38:43;;;;;;;18.02;11.00;;;7.90;99.90;;;;;;4867252;29;20042;-76
2022/09/28 00:41:13;;;;;;;17.58;11.10;;;7.90;99.90;;;;;;4878757;29;20055;-76
2022/09/28 00:43:39;;;;;;;18.17;10.20;;;8.00;99.90;;;;;;4873639;29;20053;-77
2022/09/28 00:46:16;;;;;;;18.63;10.52;;;7.90;99.90;;;;;;4872616;29;20064;-76
2022/09/28 00:48:53;;;;;;;18.50;9.95;;;7.90;99.90;;;;;;4875756;29;20053;-76
2022/09/28 00:51:20;;;;;;;17.60;9.45;;;7.90;99.90;;;;;;4871264;29;20064;-76
2022/09/28 00:53:48;;;;;;;18.67;10.18;;;8.00;99.90;;;;;;4881015;29;20052;-75
2022/09/28 00:56:20;;;;;;;15.00;9.55;;;7.90;99.90;;;;;;4875812;29;20109;-75
2022/09/28 00:58:49;;;;;;;17.95;9.45;;;7.80;99.90;;;;;;4880048;29;20080;-76
2022/09/28 01:01:15;;;;;;;16.90;9.52;;;7.80;99.90;;;;;;4872078;29;20085;-75
2022/09/28 01:03:44;;;;;;;16.05;9.98;;;8.40;99.90;;;;;;4878644;29;20073;-77
2022/09/28 01:06:13;;;;;;;;;;;8.60;99.90;;;;;;4876090;29;20136;-76
2022/09/28 01:08:42;;;;;;;22.23;10.48;;;7.80;99.90;;;;;;4874040;29;20030;-76
2022/09/28 01:11:07;;;;;;;20.05;10.10;;;7.70;99.90;;;;;;4878371;29;20074;-76
2022/09/28 01:13:33;;;;;;;22.55;11.32;;;8.00;99.90;;;;;;4878818;29;20048;-75
2022/09/28 01:16:11;;;;;;;17.60;11.90;;;7.70;99.90;;;;;;4846581;29;20048;-75
2022/09/28 01:18:58;;;;;;;18.80;11.48;;;7.70;99.90;;;;;;4879159;29;20049;-75
2022/09/28 01:21:24;;;;;;;20.27;11.05;;;7.70;99.90;;;;;;4863072;29;20464;-76
2022/09/28 01:24:12;;;;;;;18.73;11.43;;;7.70;99.90;;;;;;4880229;29;20053;-75
2022/09/28 01:27:02;;;;;;;19.30;11.07;;;7.60;99.90;;;;;;4862497;29;20060;-76
2022/09/28 01:29:44;;;;;;;16.77;10.65;;;7.60;99.90;;;;;;4877536;29;20136;-76
2022/09/28 01:32:21;;;;;;;18.13;10.68;;;7.60;99.90;;;;;;4862142;29;20059;-76
2022/09/28 04:07:55;;;;;;;57.67;14.77;;;7.10;99.90;;;;;;5058558;23;19924;-77
2022/09/28 04:10:20;;;;;;;56.45;14.35;;;7.10;99.90;;;;;;4885460;29;20500;-78
2022/09/28 04:12:46;;;;;;;62.15;15.38;;;7.10;99.90;;;;;;4879382;29;20127;-77
2022/09/28 04:15:12;;;;;;;67.20;14.13;;;7.10;99.90;;;;;;4872494;29;20044;-77
2022/09/28 04:17:37;;;;;;;113.65;16.27;;;7.20;99.90;;;;;;4878196;29;20044;-78
2022/09/28 04:20:04;;;;;;;70.55;15.88;;;7.10;99.90;;;;;;4868261;29;20060;-76
2022/09/28 04:22:30;;;;;;;57.92;15.02;;;7.10;99.90;;;;;;4897543;29;20426;-77
2022/09/28 04:24:56;;;;;;;61.08;14.38;;;7.10;99.90;;;;;;4898495;29;20127;-76
2022/09/28 04:30:11;;;;;;;95.93;15.18;;;7.10;99.90;;;;;;4871861;29;20123;-77
2022/09/28 04:32:36;;;;;;;63.15;12.80;;;7.10;99.90;;;;;;4865266;29;20105;-77
2022/09/28 04:35:02;;;;;;;52.47;13.05;;;7.10;99.90;;;;;;4873168;29;20515;-76
2022/09/28 04:37:30;;;;;;;24.50;12.93;;;7.10;99.90;;;;;;4893619;29;20489;-76
2022/09/28 04:39:55;;;;;;;25.90;12.88;;;7.10;99.90;;;;;;4867711;29;20041;-75
2022/09/28 04:42:21;;;;;;;18.38;11.70;;;7.10;99.90;;;;;;4868076;29;20045;-76
2022/09/28 04:44:47;;;;;;;25.40;11.98;;;7.10;99.90;;;;;;4898708;29;20037;-76
2022/09/28 04:47:13;;;;;;;23.83;13.77;;;7.00;99.90;;;;;;4898415;29;20104;-77
2022/09/28 04:49:38;;;;;;;24.30;11.82;;;7.00;99.90;;;;;;4896763;29;20479;-78
2022/09/28 04:52:05;;;;;;;24.88;12.13;;;7.10;99.90;;;;;;4898175;29;20124;-76
2022/09/28 04:54:34;;;;;;;24.90;12.80;;;7.00;99.90;;;;;;4877595;29;20044;-76
2022/09/28 04:57:00;;;;;;;22.67;13.10;;;7.00;99.90;;;;;;4896818;29;20088;-76
2022/09/28 04:59:25;;;;;;;24.27;13.32;;;7.60;99.90;;;;;;4895189;29;20609;-75
2022/09/28 05:01:52;;;;;;;21.45;12.85;;;7.00;99.90;;;;;;4884451;29;20064;-77
2022/09/28 05:04:18;;;;;;;22.55;12.65;;;7.00;99.90;;;;;;4893866;29;20466;-75
2022/09/28 05:06:44;;;;;;;23.33;13.85;;;7.00;99.90;;;;;;4891674;29;20064;-76
2022/09/28 05:09:09;;;;;;;23.40;12.90;;;7.00;99.90;;;;;;4878961;29;20510;-77
2022/09/28 05:11:35;;;;;;;21.83;12.77;;;6.90;99.90;;;;;;4884440;29;20431;-72
2022/09/28 05:14:01;;;;;;;23.65;13.38;;;7.00;99.90;;;;;;4889441;29;20045;-72
2022/09/28 05:16:27;;;;;;;19.90;13.23;;;6.90;99.90;;;;;;4892829;29;20096;-72
2022/09/28 05:18:56;;;;;;;21.42;13.20;;;7.00;99.90;;;;;;4881962;29;20052;-73
2022/09/28 05:21:24;;;;;;;20.55;12.63;;;6.90;99.90;;;;;;4889683;29;20128;-72
2022/09/28 05:23:50;;;;;;;25.10;13.55;;;6.90;99.90;;;;;;4889404;29;20132;-71
2022/09/28 05:26:16;;;;;;;25.85;12.95;;;6.90;99.90;;;;;;4888421;29;20437;-72
2022/09/28 05:28:43;;;;;;;24.77;13.23;;;6.90;99.90;;;;;;4899741;29;20104;-72
2022/09/28 05:31:09;;;;;;;23.42;13.10;;;6.90;99.90;;;;;;4900732;29;20049;-72
2022/09/28 05:33:36;;;;;;;22.67;12.43;;;6.80;99.90;;;;;;4894154;29;20044;-71
2022/09/28 05:36:02;;;;;;;25.63;13.60;;;6.90;99.90;;;;;;4904225;29;20029;-72
2022/09/28 05:38:28;;;;;;;23.13;13.57;;;6.80;99.90;;;;;;4890481;29;20053;-74
2022/09/28 05:40:54;;;;;;;27.40;13.82;;;7.20;99.90;;;;;;4873868;29;20045;-72
2022/09/28 05:43:23;;;;;;;29.63;13.02;;;6.80;99.90;;;;;;4884984;29;20123;-72
2022/09/28 05:45:48;;;;;;;23.17;12.68;;;6.80;99.90;;;;;;4883316;29;20515;-73
2022/09/28 05:48:14;;;;;;;26.40;13.73;;;6.80;99.90;;;;;;4883793;29;20044;-72
2022/09/28 05:50:42;;;;;;;25.30;13.68;;;6.80;99.90;;;;;;4868049;29;20037;-72
2022/09/28 05:53:09;;;;;;;23.90;13.23;;;6.80;99.90;;;;;;4883455;29;20124;-74
2022/09/28 05:55:36;;;;;;;21.20;12.63;;;6.80;99.90;;;;;;4889377;29;20469;-72
2022/09/28 05:58:04;;;;;;;20.88;12.65;;;6.80;99.90;;;;;;4882033;29;20082;-73
2022/09/28 06:00:32;;;;;;;26.98;13.50;;;6.90;99.90;;;;;;4881070;29;20048;-73
2022/09/28 06:02:59;;;;;;;27.38;13.68;;;7.00;99.90;;;;;;4882289;29;20053;-72
2022/09/28 06:05:27;;;;;;;22.90;12.77;;;6.90;99.90;;;;;;4886613;29;20212;-72
2022/09/28 06:07:57;;;;;;;21.40;13.15;;;6.90;99.90;;;;;;4881390;29;20093;-71
2022/09/28 06:10:24;;;;;;;20.30;12.77;;;7.00;99.90;;;;;;4883698;29;20045;-72
2022/09/28 06:12:54;;;;;;;23.00;13.73;;;7.00;99.90;;;;;;4885556;29;20045;-72
2022/09/28 06:15:22;;;;;;;23.70;13.48;;;7.10;99.90;;;;;;4881901;29;20041;-71
2022/09/28 06:17:53;;;;;;;23.00;12.60;;;7.10;99.90;;;;;;4882000;29;20500;-71
2022/09/28 06:20:19;;;;;;;22.80;13.25;;;7.10;99.90;;;;;;4868972;29;20069;-72
2022/09/28 06:22:45;;;;;;;22.90;13.15;;;7.10;99.90;;;;;;4890013;29;20044;-73
2022/09/28 06:25:10;;;;;;;25.38;12.98;;;7.20;99.90;;;;;;4883450;29;20049;-72
2022/09/28 06:27:36;;;;;;;27.88;13.07;;;7.20;99.90;;;;;;4880306;29;20055;-72
2022/09/28 06:30:02;;;;;;;23.00;13.70;;;7.20;99.90;;;;;;4875802;29;20056;-72
2022/09/28 06:32:28;;;;;;;25.20;13.88;;;7.20;99.90;;;;;;4877869;29;20045;-72
2022/09/28 06:34:54;;;;;;;32.75;14.43;;;7.20;99.90;;;;;;4878932;29;20535;-73
2022/09/28 06:37:20;;;;;;;22.52;12.90;;;7.30;99.90;;;;;;4858547;29;20381;-71
2022/09/28 06:39:46;;;;;;;21.60;13.65;;;7.30;99.90;;;;;;4878501;29;20072;-72
2022/09/28 06:42:11;;;;;;;21.30;12.98;;;7.30;99.90;;;;;;4878029;29;20045;-74
2022/09/28 06:44:37;;;;;;;19.65;12.25;;;7.40;99.90;;;;;;4879690;29;20127;-74
2022/09/28 06:47:03;;;;;;;21.52;12.13;;;7.50;99.90;;;;;;4862367;29;20403;-73
2022/09/28 06:49:29;;;;;;;18.60;11.45;;;7.60;99.90;;;;;;4880016;29;20091;-73
2022/09/28 06:51:54;;;;;;;18.15;11.07;;;7.60;99.90;;;;;;4878400;29;20045;-73
2022/09/28 06:54:24;;;;;;;18.60;12.52;;;7.70;99.90;;;;;;4876895;29;20048;-73
2022/09/28 06:56:51;;;;;;;19.67;12.25;;;7.70;99.90;;;;;;4875300;29;20127;-72
2022/09/28 06:59:17;;;;;;;15.63;11.27;;;7.80;99.90;;;;;;4874637;29;20056;-73
2022/09/28 07:01:43;;;;;;;17.38;11.60;;;7.80;99.90;;;;;;4862699;29;20057;-69
2022/09/28 07:04:08;;;;;;;17.25;11.30;;;7.90;99.90;;;;;;4883233;29;20056;-69
2022/09/28 07:06:37;;;;;;;14.18;10.25;;;7.90;99.90;;;;;;4879856;29;20094;-71
2022/09/28 07:09:05;;;;;;;15.13;10.05;;;8.00;99.90;;;;;;4878100;29;20065;-72
2022/09/28 07:11:38;;;;;;;15.35;10.35;;;8.10;99.90;;;;;;4876914;29;20128;-71
2022/09/28 07:14:05;;;;;;;17.67;11.00;;;8.20;99.90;;;;;;4878494;29;20531;-71
2022/09/28 07:16:30;;;;;;;16.88;11.55;;;8.30;99.90;;;;;;4873800;29;20087;-68
2022/09/28 07:18:56;;;;;;;16.60;11.70;;;8.30;99.90;;;;;;4879244;29;20084;-70
2022/09/28 07:21:22;;;;;;;15.02;10.68;;;8.40;99.90;;;;;;4879412;29;20108;-68
2022/09/28 07:23:48;;;;;;;16.08;10.93;;;8.40;99.90;;;;;;4877707;29;20049;-69
2022/09/28 07:26:14;;;;;;;16.85;9.90;;;8.60;99.90;;;;;;4883086;29;20049;-71
2022/09/28 07:28:41;;;;;;;14.45;10.25;;;8.60;99.90;;;;;;4882819;29;20049;-71
2022/09/28 07:31:08;;;;;;;16.35;11.90;;;8.70;99.90;;;;;;4877977;29;20103;-69
2022/09/28 07:33:34;;;;;;;19.10;11.90;;;8.90;99.90;;;;;;4878049;29;20045;-71
2022/09/28 07:36:05;;;;;;;14.43;10.73;;;9.00;99.90;;;;;;4877107;29;20048;-71
2022/09/28 07:38:31;;;;;;;12.68;10.00;;;9.10;99.90;;;;;;4882578;29;20045;-71
2022/09/28 07:41:13;;;;;;;16.58;10.52;;;9.20;99.90;;;;;;4874885;29;20055;-72
2022/09/28 07:43:40;;;;;;;17.40;10.15;;;9.20;99.90;;;;;;4888997;29;20045;-71
2022/09/28 07:46:13;;;;;;;12.93;9.43;;;9.30;99.90;;;;;;4885901;29;20069;-70
2022/09/28 07:48:42;;;;;;;13.02;9.73;;;9.40;99.90;;;;;;4890738;29;20045;-71
2022/09/28 07:51:09;;;;;;;13.68;9.13;;;9.40;99.90;;;;;;4887633;29;20099;-71
2022/09/28 07:53:37;;;;;;;16.73;9.70;;;9.60;99.90;;;;;;4884644;29;20041;-72
2022/09/28 07:56:05;;;;;;;12.55;9.20;;;9.60;99.90;;;;;;4882901;29;20049;-71
2022/09/28 07:58:35;;;;;;;14.15;8.77;;;9.70;99.90;;;;;;4883855;29;20041;-71
2022/09/28 08:01:07;;;;;;;17.52;9.77;;;9.80;99.90;;;;;;4884960;29;20049;-70
2022/09/28 08:03:34;;;;;;;12.82;9.02;;;10.20;99.90;;;;;;4882219;29;20140;-70
2022/09/28 08:06:01;;;;;;;15.98;9.68;;;10.20;99.90;;;;;;4882501;29;20080;-71
2022/09/28 08:08:28;;;;;;;10.65;8.82;;;10.20;99.90;;;;;;4883088;29;20061;-71
2022/09/28 08:10:55;;;;;;;12.05;9.27;;;10.40;99.90;;;;;;4883957;29;20045;-72
2022/09/28 08:13:24;;;;;;;12.68;9.32;;;10.50;99.90;;;;;;4890311;29;20053;-69
2022/09/28 08:15:53;;;;;;;12.43;8.48;;;10.60;99.90;;;;;;4886475;29;20201;-70
2022/09/28 08:18:22;;;;;;;12.00;8.88;;;10.80;99.90;;;;;;4887597;29;20041;-70
2022/09/28 08:23:37;;;;;;;15.73;8.45;;;11.00;99.90;;;;;;4893561;29;20053;-71
2022/09/28 08:26:03;;;;;;;9.48;8.40;;;11.10;99.90;;;;;;4873332;29;20041;-70
2022/09/28 08:28:29;;;;;;;10.98;8.20;;;11.20;99.90;;;;;;4895928;29;20073;-72
2022/09/28 08:30:58;;;;;;;10.88;7.82;;;11.30;99.90;;;;;;4894944;29;20044;-72
2022/09/28 08:33:24;;;;;;;11.45;7.72;;;11.30;99.90;;;;;;4895645;29;20068;-71
2022/09/28 08:36:09;;;;;;;11.30;8.73;;;11.50;99.90;;;;;;4879271;29;20500;-73
2022/09/28 08:38:34;;;;;;;11.27;8.35;;;11.50;99.90;;;;;;4895534;29;20056;-73
2022/09/28 08:41:27;;;;;;;11.90;8.25;;;11.60;99.90;;;;;;4890512;29;20594;-70
2022/09/28 08:43:58;;;;;;;15.25;8.38;;;11.70;99.90;;;;;;4886816;29;20051;-71
2022/09/28 08:46:32;;;;;;;10.48;7.85;;;11.90;99.90;;;;;;4883232;29;20087;-71
2022/09/28 08:49:08;;;;;;;12.32;7.53;;;12.00;99.90;;;;;;4884393;29;20048;-70
2022/09/28 08:51:54;;;;;;;11.75;7.53;;;12.20;99.90;;;;;;4881315;29;20092;-71
2022/09/28 08:54:24;;;;;;;11.98;7.28;;;12.30;99.90;;;;;;4867541;29;20069;-72
2022/09/28 08:56:58;;;;;;;10.75;7.43;;;12.40;99.90;;;;;;4871482;29;20067;-71
2022/09/28 08:59:33;;;;;;;11.27;7.38;;;12.50;99.90;;;;;;4882316;29;20079;-71
2022/09/28 09:02:02;;;;;;;10.10;7.53;;;12.60;99.90;;;;;;4887375;29;20061;-70
2022/09/28 09:04:31;;;;;;;11.95;9.07;;;12.60;99.90;;;;;;4890801;29;20069;-71
2022/09/28 09:07:21;;;;;;;10.55;7.72;;;12.80;99.90;;;;;;4894066;29;20072;-72
2022/09/28 09:09:55;;;;;;;9.07;7.82;;;12.90;99.90;;;;;;4870717;29;20064;-74
2022/09/28 09:12:55;;;;;;;12.35;8.05;;;13.10;99.90;;;;;;4895688;29;20041;-73
2022/09/28 09:15:42;;;;;;;12.60;8.82;;;13.20;99.90;;;;;;4890056;29;20044;-72
2022/09/28 09:18:24;;;;;;;16.25;7.65;;;13.40;99.90;;;;;;4887309;29;20072;-69
2022/09/28 09:20:55;;;;;;;11.23;6.80;;;13.50;99.90;;;;;;4885230;29;20091;-72
2022/09/28 09:23:38;;;;;;;10.35;7.60;;;13.70;99.90;;;;;;4875410;29;20499;-70
2022/09/28 09:26:21;;;;;;;12.15;6.75;;;13.80;99.90;;;;;;4887920;29;20132;-74
2022/09/28 09:29:05;;;;;;;11.18;6.43;;;14.00;99.90;;;;;;4885434;29;20040;-71
2022/09/28 09:31:41;;;;;;;11.38;6.55;;;14.10;99.90;;;;;;4888457;29;20080;-74
2022/09/28 09:34:19;;;;;;;7.35;5.50;;;14.30;99.90;;;;;;4882427;29;20065;-74
2022/09/28 09:37:06;;;;;;;10.20;5.43;;;14.50;99.90;;;;;;4879350;29;20129;-71
2022/09/28 09:39:51;;;;;;;6.93;4.90;;;14.70;99.90;;;;;;4887344;29;20045;-72
2022/09/28 09:42:54;;;;;;;8.50;4.50;;;14.90;99.90;;;;;;4886887;29;20496;-71
2022/09/28 09:45:53;;;;;;;5.72;3.90;;;15.00;99.90;;;;;;4878606;29;20052;-69
2022/09/28 09:48:33;;;;;;;5.82;3.50;;;15.10;99.90;;;;;;4882129;29;20432;-74
2022/09/28 09:51:22;;;;;;;10.98;3.70;;;15.10;99.90;;;;;;4864618;29;20120;-74
2022/09/28 09:53:58;;;;;;;6.07;3.55;;;15.20;99.90;;;;;;4852623;29;20657;-71
2022/09/28 09:56:42;;;;;;;4.63;3.40;;;15.50;99.90;;;;;;4884162;29;20104;-70
2022/09/28 09:59:15;;;;;;;4.53;3.33;;;15.70;99.90;;;;;;4884371;29;20041;-71
2022/09/28 10:01:41;;;;;;;5.10;3.42;;;15.80;99.90;;;;;;4890988;29;20077;-73
2022/09/28 10:04:16;;;;;;;5.78;3.10;;;16.20;99.90;;;;;;4883091;29;20456;-73
2022/09/28 10:06:42;;;;;;;13.02;3.20;;;16.50;99.90;;;;;;4883202;29;20061;-70
2022/09/28 10:09:30;;;;;;;5.55;3.38;;;16.80;99.90;;;;;;4864803;29;20041;-72
2022/09/28 10:11:58;;;;;;;4.30;2.50;;;16.90;99.90;;;;;;4882453;29;20055;-72
2022/09/28 10:14:25;;;;;;;6.60;2.50;;;17.20;99.90;;;;;;4864091;29;20474;-74
2022/09/28 10:16:53;;;;;;;7.47;2.33;;;17.10;99.90;;;;;;4859204;29;20132;-75
2022/09/28 10:19:24;;;;;;;4.97;1.75;;;16.90;99.90;;;;;;4879732;29;20069;-73
2022/09/28 10:21:53;;;;;;;5.13;1.52;;;16.80;99.90;;;;;;4875491;29;20045;-74
2022/09/28 10:24:27;;;;;;;4.70;1.60;;;16.40;99.90;;;;;;4861128;29;20061;-73
2022/09/28 10:26:54;;;;;;;3.42;1.50;;;15.80;99.90;;;;;;4864090;29;20092;-71
2022/09/28 10:29:23;;;;;;;4.00;1.67;;;15.50;99.90;;;;;;4883863;29;20045;-72
2022/09/28 10:31:53;;;;;;;4.70;1.60;;;15.20;99.90;;;;;;4865364;29;20041;-73
2022/09/28 10:34:27;;;;;;;3.03;1.52;;;14.80;99.90;;;;;;4867405;29;20041;-73
2022/09/28 10:37:00;;;;;;;6.88;1.73;;;14.60;99.90;;;;;;4880099;29;20049;-72
2022/09/28 10:39:36;;;;;;;3.60;1.70;;;14.40;99.90;;;;;;4847941;29;20131;-73
2022/09/28 10:42:19;;;;;;;3.90;1.50;;;14.20;99.90;;;;;;4878407;29;20459;-73
2022/09/28 10:45:09;;;;;;;4.28;1.65;;;14.00;99.90;;;;;;4864092;29;20045;-72
2022/09/28 10:47:35;;;;;;;3.67;1.55;;;14.00;99.90;;;;;;4862336;29;20046;-71
2022/09/28 10:50:01;;;;;;;6.38;1.30;;;14.00;99.90;;;;;;4861956;29;20049;-73
2022/09/28 10:52:32;;;;;;;4.60;1.30;;;14.00;99.90;;;;;;4880008;29;20124;-71
2022/09/28 10:55:21;;;;;;;2.72;1.25;;;14.00;99.90;;;;;;4865988;29;20108;-74
2022/09/28 10:57:47;;;;;;;1.80;1.00;;;13.90;99.90;;;;;;4879443;29;20048;-71
2022/09/28 11:00:48;;;;;;;1.80;1.20;;;13.80;99.90;;;;;;4878750;29;20051;-73
2022/09/28 11:03:25;;;;;;;4.35;1.38;;;13.70;99.90;;;;;;4839268;29;20053;-74
2022/09/28 11:06:05;;;;;;;3.70;1.42;;;13.70;99.90;;;;;;4875038;29;20085;-74
2022/09/28 11:08:37;;;;;;;5.22;1.60;;;13.60;99.90;;;;;;4882196;29;20055;-71
2022/09/28 11:11:14;;;;;;;4.68;1.65;;;13.60;99.90;;;;;;4879546;29;20120;-71
2022/09/28 11:13:49;;;;;;;4.13;1.40;;;13.60;99.90;;;;;;4878793;29;20052;-73
2022/09/28 11:16:34;;;;;;;5.00;1.60;;;13.70;99.90;;;;;;4879376;29;20161;-72
2022/09/28 11:19:24;;;;;;;2.70;1.20;;;13.80;99.90;;;;;;4866710;29;20040;-73
2022/09/28 11:21:50;;;;;;;5.25;1.13;;;13.90;99.90;;;;;;4877536;29;20044;-72
2022/09/28 11:24:22;;;;;;;2.78;1.00;;;13.90;99.90;;;;;;4881308;29;20062;-71
2022/09/28 11:27:00;;;;;;;2.40;1.00;;;13.80;99.90;;;;;;4881383;29;20495;-71
2022/09/28 11:29:42;;;;;;;2.55;1.25;;;13.70;99.90;;;;;;4879529;29;20436;-73
2022/09/28 11:32:09;;;;;;;1.38;0.90;;;13.60;99.90;;;;;;4880379;29;20053;-74
2022/09/28 11:34:48;;;;;;;3.25;1.10;;;13.50;99.90;;;;;;4877120;29;20056;-73
2022/09/28 11:37:33;;;;;;;3.78;1.38;;;13.50;99.90;;;;;;4861697;29;20395;-71
2022/09/28 11:40:13;;;;;;;3.75;1.20;;;13.50;99.90;;;;;;4873950;29;20532;-73
2022/09/28 11:43:02;;;;;;;4.20;1.40;;;13.40;99.90;;;;;;4878279;29;20554;-73
2022/09/28 11:45:55;;;;;;;4.47;1.45;;;13.50;99.90;;;;;;4862170;29;20053;-73
2022/09/28 11:48:26;;;;;;;1.85;1.40;;;13.40;99.90;;;;;;4878394;29;20041;-72
2022/09/28 11:51:05;;;;;;;5.80;1.33;;;13.30;99.90;;;;;;4874133;29;20073;-74
2022/09/28 11:53:38;;;;;;;3.15;1.52;;;13.30;99.90;;;;;;4874483;29;20518;-73
2022/09/28 11:56:17;;;;;;;3.45;1.27;;;13.30;99.90;;;;;;4860014;29;20057;-72
2022/09/28 11:58:54;;;;;;;4.45;1.30;;;13.30;99.90;;;;;;4877049;29;20053;-71
2022/09/28 12:01:34;;;;;;;4.53;1.27;;;13.20;99.90;;;;;;4877288;29;20396;-71
2022/09/28 12:04:15;;;;;;;3.95;1.23;;;13.20;99.90;;;;;;4878210;29;20053;-71
2022/09/28 12:06:49;;;;;;;2.08;0.93;;;13.20;99.90;;;;;;4886039;29;20076;-69
2022/09/28 12:09:23;;;;;;;2.50;0.80;;;13.30;99.90;;;;;;4879537;29;20049;-71
2022/09/28 12:11:57;;;;;;;5.32;1.10;;;13.20;99.90;;;;;;4877009;29;20076;-71
2022/09/28 12:14:34;;;;;;;3.50;0.80;;;13.10;99.90;;;;;;4845751;29;20107;-71
2022/09/28 12:17:09;;;;;;;2.25;1.10;;;13.10;99.90;;;;;;4874270;29;20075;-72
2022/09/28 12:19:47;;;;;;;5.25;1.00;;;13.00;99.90;;;;;;4884210;29;20049;-72
2022/09/28 12:22:28;;;;;;;1.88;0.73;;;13.00;99.90;;;;;;4881638;29;20096;-73
2022/09/28 12:24:56;;;;;;;2.35;0.68;;;13.00;99.90;;;;;;4878851;29;20068;-72
2022/09/28 12:27:26;;;;;;;;;;;13.00;99.90;;;;;;4883870;29;20057;-70
2022/09/28 12:30:00;;;;;;;2.00;0.98;;;13.10;99.90;;;;;;4871151;29;19930;-69
2022/09/28 12:32:47;;;;;;;2.10;0.98;;;13.10;99.90;;;;;;4897903;29;20049;-71
2022/09/28 12:35:32;;;;;;;2.00;0.98;;;13.00;99.90;;;;;;4882604;29;20041;-71
2022/09/28 12:38:20;;;;;;;3.35;1.40;;;13.00;99.90;;;;;;4851751;29;20049;-72
2022/09/28 12:40:54;;;;;;;2.55;0.63;;;13.00;99.90;;;;;;4885101;29;20059;-71
2022/09/28 12:43:35;;;;;;;1.73;0.70;;;13.00;99.90;;;;;;4882556;29;20060;-73
2022/09/28 12:46:20;;;;;;;2.25;0.85;;;12.80;99.90;;;;;;4880981;29;20096;-73
2022/09/28 12:48:58;;;;;;;0.88;0.60;;;12.90;99.90;;;;;;4853949;29;20060;-71
2022/09/28 12:51:46;;;;;;;2.78;0.90;;;12.80;99.90;;;;;;4881396;29;20057;-72
2022/09/28 12:54:37;;;;;;;1.13;0.80;;;12.80;99.90;;;;;;4865198;29;20055;-72
2022/09/28 12:57:57;;;;;;;1.92;0.77;;;12.70;99.90;;;;;;4879031;29;20433;-71
2022/09/28 13:00:28;;;;;;;1.60;0.82;;;12.70;99.90;;;;;;4861171;29;20057;-71
2022/09/28 13:03:19;;;;;;;3.03;1.00;;;12.60;99.90;;;;;;4882126;29;20061;-74
2022/09/28 13:06:28;;;;;;;2.30;1.00;;;12.60;99.90;;;;;;4881255;29;20061;-74
2022/09/28 13:09:06;;;;;;;1.40;0.90;;;12.50;99.90;;;;;;4875330;29;20444;-72
2022/09/28 13:11:42;;;;;;;5.87;1.00;;;12.80;99.90;;;;;;4867124;29;20429;-73
2022/09/28 13:14:34;;;;;;;4.07;0.93;;;12.40;99.90;;;;;;4887839;29;20380;-72
2022/09/28 13:17:06;;;;;;;3.42;0.95;;;12.50;99.90;;;;;;4878529;29;20658;-73
2022/09/28 13:19:45;;;;;;;4.22;1.30;;;12.40;99.90;;;;;;4886124;29;20056;-70
2022/09/28 13:22:30;;;;;;;2.80;1.30;;;12.40;99.90;;;;;;4898757;29;20095;-72
2022/09/28 13:25:01;;;;;;;4.15;1.45;;;12.40;99.90;;;;;;4877771;29;20465;-73
2022/09/28 13:27:44;;;;;;;2.65;1.45;;;12.40;99.90;;;;;;4881209;29;20108;-71
2022/09/28 13:30:13;;;;;;;4.57;2.00;;;12.50;99.90;;;;;;4853946;29;20057;-72
2022/09/28 13:32:40;;;;;;;4.50;2.25;;;12.60;99.90;;;;;;4863779;29;20452;-72
2022/09/28 13:35:15;;;;;;;4.07;2.90;;;13.00;99.90;;;;;;4876133;29;20045;-72
2022/09/28 13:37:40;;;;;;;5.28;2.67;;;12.80;99.90;;;;;;4880517;29;20047;-74
2022/09/28 13:40:06;;;;;;;4.22;1.70;;;12.80;99.90;;;;;;4875399;29;20040;-75
2022/09/28 13:42:35;;;;;;;2.97;1.50;;;12.90;99.90;;;;;;4892876;29;20120;-74
2022/09/28 13:45:19;;;;;;;3.08;1.35;;;12.90;99.90;;;;;;4877503;29;20045;-75
2022/09/28 13:47:50;;;;;;;2.60;1.50;;;12.90;99.90;;;;;;4877719;29;20400;-76
2022/09/28 13:50:28;;;;;;;3.53;1.60;;;13.00;99.90;;;;;;4881333;29;20559;-75
2022/09/28 13:53:28;;;;;;;4.15;1.48;;;13.00;99.90;;;;;;4884802;29;20518;-75
2022/09/28 13:56:11;;;;;;;6.07;1.40;;;13.10;99.90;;;;;;4883868;29;20496;-74
2022/09/28 13:58:50;;;;;;;4.78;1.48;;;13.10;99.90;;;;;;4877643;29;20391;-75
2022/09/28 14:01:23;;;;;;;2.90;1.40;;;13.20;99.90;;;;;;4894104;29;20037;-76
2022/09/28 14:04:09;;;;;;;8.43;1.55;;;13.20;99.90;;;;;;4898454;29;20045;-72
2022/09/28 14:06:35;;;;;;;3.72;1.40;;;13.30;99.90;;;;;;4887129;29;20067;-76
2022/09/28 14:09:11;;;;;;;4.40;1.50;;;13.40;99.90;;;;;;4889621;29;20109;-77
2022/09/28 14:11:52;;;;;;;2.17;1.13;;;13.50;99.90;;;;;;4893865;29;20041;-78
2022/09/28 14:14:17;;;;;;;1.98;1.17;;;13.60;99.90;;;;;;4869762;29;20118;-76
2022/09/28 14:16:46;;;;;;;5.53;1.50;;;13.70;99.90;;;;;;4866846;29;20096;-76
2022/09/28 14:19:23;;;;;;;6.90;1.30;;;13.80;99.90;;;;;;4876311;29;20147;-75
2022/09/28 14:22:31;;;;;;;3.08;1.40;;;13.70;99.90;;;;;;4877220;29;20042;-76
2022/09/28 14:25:01;;;;;;;1.77;1.20;;;13.70;99.90;;;;;;4867356;29;20059;-76
2022/09/28 14:27:36;;;;;;;5.70;1.50;;;13.60;99.90;;;;;;4877343;29;20045;-76
2022/09/28 14:30:10;;;;;;;2.75;1.20;;;13.60;99.90;;;;;;4863699;29;20045;-75
2022/09/28 14:32:38;;;;;;;1.80;1.13;;;13.60;99.90;;;;;;4886008;29;20128;-77
2022/09/28 14:35:26;;;;;;;2.63;0.80;;;13.60;99.90;;;;;;4896221;29;20045;-76
2022/09/28 14:41:14;;;;;;;2.97;1.05;;;13.80;99.90;;;;;;4891263;29;20057;-75
2022/09/28 14:43:45;;;;;;;2.55;0.90;;;13.80;99.90;;;;;;4884284;29;20077;-76
2022/09/28 14:46:11;;;;;;;2.55;0.80;;;13.80;99.90;;;;;;4906237;29;20052;-75
2022/09/28 14:48:55;;;;;;;1.70;0.95;;;13.80;99.90;;;;;;4869778;29;20057;-75
2022/09/28 14:51:33;;;;;;;5.70;1.08;;;13.80;99.90;;;;;;4867053;29;20041;-75
2022/09/28 14:54:11;;;;;;;2.53;1.00;;;13.80;99.90;;;;;;4877602;29;20101;-74
2022/09/28 14:57:00;;;;;;;2.53;0.80;;;13.80;99.90;;;;;;4888205;29;20060;-75
2022/09/28 14:59:34;;;;;;;3.50;1.20;;;13.80;99.90;;;;;;4887639;29;20056;-75
2022/09/28 15:02:09;;;;;;;3.67;1.20;;;13.80;99.90;;;;;;4889616;29;20060;-75
2022/09/28 15:04:41;;;;;;;1.70;1.00;;;13.70;99.90;;;;;;4888395;29;20124;-75
2022/09/28 15:07:25;;;;;;;1.63;1.10;;;13.80;99.90;;;;;;4891016;29;20049;-74
2022/09/28 15:09:56;;;;;;;1.67;0.85;;;13.90;99.90;;;;;;4894923;29;20078;-76
2022/09/28 15:12:28;;;;;;;3.13;1.25;;;13.90;99.90;;;;;;4892465;29;20053;-73
2022/09/28 15:15:02;;;;;;;2.80;1.27;;;13.90;99.90;;;;;;4884199;29;20053;-77
2022/09/28 15:17:34;;;;;;;5.10;1.10;;;13.90;99.90;;;;;;4875511;29;20049;-75
2022/09/28 15:20:25;;;;;;;5.43;1.00;;;13.80;99.90;;;;;;4882051;29;20109;-76
2022/09/28 15:22:56;;;;;;;2.28;1.08;;;13.70;99.90;;;;;;4891873;29;20041;-76
2022/09/28 15:25:24;;;;;;;2.92;0.75;;;13.70;99.90;;;;;;4897746;29;20052;-75
2022/09/28 15:27:56;;;;;;;1.58;1.00;;;13.70;99.90;;;;;;4885570;29;20113;-65
2022/09/28 15:30:30;;;;;;;3.30;1.23;;;13.60;99.90;;;;;;4881294;29;20495;-65
2022/09/28 15:34:50;;;;;;;5.22;1.35;;;13.50;99.90;;;;;;4882947;29;20049;-65
2022/09/28 15:36:05;;;;;;;2.75;1.10;;;13.60;99.90;;;;;;4871656;29;20659;-64
2022/09/28 15:38:32;;;;;;;3.15;1.08;;;13.50;99.90;;;;;;4877244;29;20047;-63
2022/09/28 15:41:03;;;;;;;2.92;1.35;;;13.50;99.90;;;;;;4872980;29;20037;-65
2022/09/28 15:43:32;;;;;;;3.30;1.65;;;13.40;99.90;;;;;;4873227;29;20395;-66
2022/09/28 15:46:03;;;;;;;4.05;1.85;;;13.40;99.90;;;;;;4873038;29;20567;-65
2022/09/28 15:48:30;;;;;;;2.80;1.52;;;13.40;99.90;;;;;;4879370;29;20506;-66
2022/09/28 15:51:09;;;;;;;2.53;1.20;;;13.40;99.90;;;;;;4842265;29;20740;-66
2022/09/28 15:53:57;;;;;;;3.15;1.00;;;13.30;99.90;;;;;;4876268;29;20842;-66
2022/09/28 15:56:23;;;;;;;3.03;1.20;;;13.20;99.90;;;;;;4846964;29;20053;-66
2022/09/28 15:59:11;;;;;;;3.58;1.35;;;13.20;99.90;;;;;;4878441;29;20053;-65